createdAt,value
2023-05-25T00:00:13.909Z,99041.00
2023-05-25T00:01:16.397Z,99047.50
2023-05-25T00:02:18.354Z,99039.41
2023-05-25T00:03:20.469Z,99040.50
2023-05-25T00:04:27.022Z,99040.22
2023-05-25T00:05:29.172Z,99041.59
2023-05-25T00:06:32.925Z,99047.81
2023-05-25T00:07:34.885Z,99043.78
2023-05-25T00:08:36.734Z,99042.69
2023-05-25T00:09:38.647Z,99044.84
2023-05-25T00:10:40.497Z,99038.63
2023-05-25T00:11:42.411Z,99043.22
2023-05-25T00:12:44.312Z,99044.84
2023-05-25T00:13:46.199Z,99048.91
2023-05-25T00:14:48.996Z,99041.09
2023-05-25T00:15:51.170Z,99043.25
2023-05-25T00:16:53.187Z,99035.69
2023-05-25T00:17:55.160Z,99039.44
2023-05-25T00:18:57.613Z,99033.00
2023-05-25T00:20:09.456Z,99034.88
2023-05-25T00:21:11.875Z,99037.59
2023-05-25T00:22:13.850Z,99034.59
2023-05-25T00:23:15.959Z,99028.94
2023-05-25T00:24:17.970Z,99034.34
2023-05-25T00:25:20.918Z,99032.72
2023-05-25T00:26:22.825Z,99032.72
2023-05-25T00:27:25.353Z,99031.91
2023-05-25T00:28:27.190Z,99028.41
2023-05-25T00:29:30.038Z,99024.91
2023-05-25T00:30:31.958Z,99029.50
2023-05-25T00:31:35.367Z,99032.47
2023-05-25T00:32:37.537Z,99030.84
2023-05-25T00:33:39.526Z,99039.25
2023-05-25T00:34:41.655Z,99027.34
2023-05-25T00:35:44.782Z,99031.94
2023-05-25T00:36:49.997Z,99028.44
2023-05-25T00:37:51.932Z,99036.53
2023-05-25T00:38:53.833Z,99031.13
2023-05-25T00:39:55.789Z,99033.03
2023-05-25T00:40:57.769Z,99030.63
2023-05-25T00:42:02.580Z,99034.69
2023-05-25T00:43:04.706Z,99037.41
2023-05-25T00:44:06.613Z,99037.91
2023-05-25T00:45:08.984Z,99039.28
2023-05-25T00:46:11.336Z,99042.28
2023-05-25T00:47:14.051Z,99034.69
2023-05-25T00:48:16.351Z,99032.00
2023-05-25T00:49:20.985Z,99033.88
2023-05-25T00:50:37.745Z,99030.09
2023-05-25T00:51:40.874Z,99029.03
2023-05-25T00:52:43.400Z,99032.56
2023-05-25T00:53:45.421Z,99038.22
2023-05-25T00:54:54.490Z,99034.44
2023-05-25T00:56:15.655Z,99033.88
2023-05-25T00:57:23.377Z,99032.56
2023-05-25T00:58:31.212Z,99031.72
2023-05-25T00:59:41.288Z,99038.22
2023-05-25T01:00:46.209Z,99031.50
2023-05-25T01:01:53.972Z,99038.00
2023-05-25T01:02:59.896Z,99038.50
2023-05-25T01:04:07.266Z,99034.47
2023-05-25T01:05:12.341Z,99039.38
2023-05-25T01:06:17.654Z,99028.78
2023-05-25T01:07:25.180Z,99032.06
2023-05-25T01:08:28.947Z,99031.53
2023-05-25T01:09:34.545Z,99036.94
2023-05-25T01:10:41.050Z,99025.34
2023-05-25T01:11:48.716Z,99032.09
2023-05-25T01:12:53.476Z,99031.00
2023-05-25T01:13:56.909Z,99026.69
2023-05-25T01:15:02.222Z,99026.69
2023-05-25T01:16:06.632Z,99031.28
2023-05-25T01:17:11.022Z,99027.25
2023-05-25T01:18:17.950Z,99029.66
2023-05-25T01:19:19.890Z,99023.75
2023-05-25T01:20:22.064Z,99023.75
2023-05-25T01:21:47.969Z,99025.34
2023-05-25T01:23:12.315Z,99021.84
2023-05-25T01:24:51.406Z,99027.78
2023-05-25T01:25:59.926Z,99026.22
2023-05-25T01:27:33.184Z,99031.31
2023-05-25T01:28:46.802Z,99019.19
2023-05-25T01:29:50.078Z,99022.44
2023-05-25T01:30:53.539Z,99027.03
2023-05-25T01:31:58.166Z,99024.63
2023-05-25T01:33:01.218Z,99016.53
2023-05-25T01:34:04.519Z,99028.13
2023-05-25T01:35:08.876Z,99020.31
2023-05-25T01:36:10.825Z,99021.69
2023-05-25T01:37:17.447Z,99023.28
2023-05-25T01:38:19.936Z,99018.19
2023-05-25T01:39:23.142Z,99021.69
2023-05-25T01:40:25.066Z,99017.09
2023-05-25T01:41:27.144Z,99018.69
2023-05-25T01:42:28.995Z,99020.88
2023-05-25T01:43:31.301Z,99026.00
2023-05-25T01:44:33.300Z,99019.78
2023-05-25T01:45:36.718Z,99024.66
2023-05-25T01:46:41.123Z,99025.47
2023-05-25T01:47:58.117Z,99017.66
2023-05-25T01:49:37.596Z,99028.13
2023-05-25T01:50:58.101Z,99032.75
2023-05-25T01:52:15.025Z,99028.16
2023-05-25T01:53:23.531Z,99028.72
2023-05-25T01:54:37.135Z,99021.69
2023-05-25T01:55:52.101Z,99024.94
2023-05-25T01:57:01.371Z,99024.69
2023-05-25T01:58:06.584Z,99019.56
2023-05-25T01:59:10.918Z,99014.97
2023-05-25T02:00:14.234Z,99021.16
2023-05-25T02:01:19.155Z,99017.94
2023-05-25T02:02:22.002Z,99022.25
2023-05-25T02:03:24.324Z,99020.66
2023-05-25T02:04:27.297Z,99019.03
2023-05-25T02:05:29.217Z,99011.75
2023-05-25T02:06:31.879Z,99017.72
2023-05-25T02:07:34.452Z,99013.91
2023-05-25T02:08:36.559Z,99016.63
2023-05-25T02:09:38.670Z,99013.91
2023-05-25T02:10:40.561Z,99015.53
2023-05-25T02:11:42.424Z,99013.91
2023-05-25T02:12:44.331Z,99019.59
2023-05-25T02:13:46.251Z,99015.81
2023-05-25T02:14:48.795Z,99014.44
2023-05-25T02:15:51.095Z,99016.09
2023-05-25T02:16:53.300Z,99013.41
2023-05-25T02:17:57.837Z,99016.91
2023-05-25T02:18:59.941Z,99014.44
2023-05-25T02:20:01.885Z,99013.63
2023-05-25T02:21:03.862Z,99016.31
2023-05-25T02:22:05.753Z,99025.22
2023-05-25T02:23:07.675Z,99015.50
2023-05-25T02:24:11.100Z,99018.22
2023-05-25T02:25:13.285Z,99015.00
2023-05-25T02:26:15.908Z,99016.88
2023-05-25T02:27:17.719Z,99014.19
2023-05-25T02:28:20.136Z,99012.56
2023-05-25T02:29:22.116Z,99016.38
2023-05-25T02:30:24.042Z,99011.78
2023-05-25T02:31:25.929Z,99017.69
2023-05-25T02:32:29.539Z,99011.25
2023-05-25T02:33:31.590Z,99010.16
2023-05-25T02:34:33.655Z,99010.44
2023-05-25T02:35:35.558Z,99012.06
2023-05-25T02:36:37.840Z,99009.91
2023-05-25T02:37:40.020Z,99005.31
2023-05-25T02:38:41.907Z,99010.72
2023-05-25T02:39:43.733Z,99005.31
2023-05-25T02:40:46.374Z,99009.13
2023-05-25T02:41:48.330Z,99006.13
2023-05-25T02:42:50.333Z,99007.47
2023-05-25T02:43:52.304Z,99005.88
2023-05-25T02:44:54.255Z,99011.25
2023-05-25T02:45:56.150Z,99009.66
2023-05-25T02:46:58.115Z,99009.66
2023-05-25T02:48:00.151Z,99017.75
2023-05-25T02:49:02.159Z,99016.13
2023-05-25T02:50:05.199Z,99009.94
2023-05-25T02:51:07.129Z,99016.13
2023-05-25T02:52:09.121Z,99015.63
2023-05-25T02:53:11.140Z,99015.63
2023-05-25T02:54:13.008Z,99011.03
2023-05-25T02:55:15.023Z,99011.03
2023-05-25T02:56:16.932Z,99019.41
2023-05-25T02:57:18.905Z,99017.78
2023-05-25T02:58:21.107Z,99014.81
2023-05-25T02:59:24.912Z,99017.78
2023-05-25T03:00:27.102Z,99016.97
2023-05-25T03:01:30.736Z,99022.09
2023-05-25T03:02:33.097Z,99014.56
2023-05-25T03:03:35.077Z,99019.69
2023-05-25T03:04:38.919Z,99022.66
2023-05-25T03:05:40.955Z,99020.75
2023-05-25T03:06:43.335Z,99025.34
2023-05-25T03:07:45.202Z,99025.34
2023-05-25T03:08:47.096Z,99018.88
2023-05-25T03:09:49.026Z,99024.28
2023-05-25T03:10:50.979Z,99023.47
2023-05-25T03:11:52.909Z,99019.41
2023-05-25T03:12:54.775Z,99016.97
2023-05-25T03:13:56.610Z,99020.78
2023-05-25T03:14:58.479Z,99021.06
2023-05-25T03:16:00.409Z,99030.47
2023-05-25T03:17:02.416Z,99015.38
2023-05-25T03:18:04.803Z,99027.25
2023-05-25T03:19:07.414Z,99024.03
2023-05-25T03:20:10.578Z,99030.50
2023-05-25T03:21:12.548Z,99031.03
2023-05-25T03:22:14.474Z,99032.13
2023-05-25T03:23:16.460Z,99037.00
2023-05-25T03:24:18.396Z,99035.91
2023-05-25T03:25:20.471Z,99032.41
2023-05-25T03:26:22.846Z,99030.00
2023-05-25T03:27:24.779Z,99039.16
2023-05-25T03:28:26.685Z,99027.53
2023-05-25T03:29:28.525Z,99032.13
2023-05-25T03:30:31.330Z,99032.94
2023-05-25T03:31:33.455Z,99041.31
2023-05-25T03:32:36.258Z,99039.16
2023-05-25T03:33:38.615Z,99036.72
2023-05-25T03:34:40.572Z,99037.81
2023-05-25T03:35:42.634Z,99047.50
2023-05-25T03:36:47.399Z,99044.28
2023-05-25T03:37:49.375Z,99037.00
2023-05-25T03:38:51.282Z,99039.97
2023-05-25T03:39:53.647Z,99038.66
2023-05-25T03:40:55.500Z,99037.28
2023-05-25T03:41:58.093Z,99038.38
2023-05-25T03:42:59.968Z,99049.16
2023-05-25T03:44:01.926Z,99046.47
2023-05-25T03:45:04.321Z,99051.84
2023-05-25T03:46:06.235Z,99053.75
2023-05-25T03:47:08.131Z,99051.34
2023-05-25T03:48:09.996Z,99054.84
2023-05-25T03:49:14.168Z,99050.81
2023-05-25T03:50:16.385Z,99055.41
2023-05-25T03:51:18.262Z,99057.00
2023-05-25T03:52:20.113Z,99053.75
2023-05-25T03:53:22.214Z,99053.50
2023-05-25T03:54:24.090Z,99052.69
2023-05-25T03:55:26.010Z,99053.50
2023-05-25T03:56:27.884Z,99051.34
2023-05-25T03:57:29.728Z,99050.25
2023-05-25T03:58:31.584Z,99055.91
2023-05-25T03:59:33.410Z,99062.94
2023-05-25T04:00:35.451Z,99061.31
2023-05-25T04:01:38.880Z,99063.50
2023-05-25T04:02:40.978Z,99059.44
2023-05-25T04:03:43.085Z,99063.50
2023-05-25T04:04:45.265Z,99065.38
2023-05-25T04:05:47.413Z,99062.16
2023-05-25T04:06:49.335Z,99069.16
2023-05-25T04:07:52.126Z,99058.38
2023-05-25T04:08:54.049Z,99067.28
2023-05-25T04:09:58.150Z,99063.75
2023-05-25T04:10:59.999Z,99068.34
2023-05-25T04:12:02.342Z,99062.16
2023-05-25T04:13:04.240Z,99060.53
2023-05-25T04:14:06.118Z,99059.72
2023-05-25T04:15:09.633Z,99064.84
2023-05-25T04:16:13.030Z,99062.16
2023-05-25T04:17:15.037Z,99059.19
2023-05-25T04:18:17.095Z,99062.72
2023-05-25T04:19:19.249Z,99064.59
2023-05-25T04:20:21.344Z,99066.50
2023-05-25T04:21:23.397Z,99059.19
2023-05-25T04:22:25.377Z,99064.31
2023-05-25T04:23:27.761Z,99062.97
2023-05-25T04:24:29.713Z,99061.91
2023-05-25T04:25:32.250Z,99063.78
2023-05-25T04:26:34.340Z,99067.53
2023-05-25T04:27:36.880Z,99061.34
2023-05-25T04:28:40.834Z,99070.25
2023-05-25T04:29:43.141Z,99067.53
2023-05-25T04:30:45.388Z,99070.25
2023-05-25T04:31:47.458Z,99072.94
2023-05-25T04:32:50.606Z,99074.81
2023-05-25T04:33:52.609Z,99066.75
2023-05-25T04:34:54.431Z,99063.50
2023-05-25T04:35:58.544Z,99062.44
2023-05-25T04:37:05.190Z,99068.63
2023-05-25T04:38:07.307Z,99063.22
2023-05-25T04:39:09.382Z,99067.00
2023-05-25T04:40:14.219Z,99071.59
2023-05-25T04:41:16.514Z,99070.53
2023-05-25T04:42:18.326Z,99072.69
2023-05-25T04:43:20.465Z,99078.09
2023-05-25T04:44:22.334Z,99069.19
2023-05-25T04:45:24.490Z,99070.00
2023-05-25T04:46:26.490Z,99077.00
2023-05-25T04:47:29.239Z,99077.81
2023-05-25T04:48:34.225Z,99075.63
2023-05-25T04:49:36.332Z,99079.97
2023-05-25T04:50:40.213Z,99082.66
2023-05-25T04:51:42.122Z,99078.09
2023-05-25T04:52:43.971Z,99080.78
2023-05-25T04:53:45.777Z,99078.09
2023-05-25T04:54:48.249Z,99083.47
2023-05-25T04:55:50.118Z,99082.91
2023-05-25T04:56:52.092Z,99090.75
2023-05-25T04:57:54.972Z,99086.69
2023-05-25T04:58:56.915Z,99084.00
2023-05-25T04:59:58.927Z,99089.69
2023-05-25T05:01:00.946Z,99096.16
2023-05-25T05:02:02.864Z,99092.66
2023-05-25T05:03:05.517Z,99089.94
2023-05-25T05:04:08.363Z,99098.84
2023-05-25T05:05:10.315Z,99098.84
2023-05-25T05:06:12.242Z,99089.13
2023-05-25T05:07:14.208Z,99097.22
2023-05-25T05:08:16.323Z,99093.47
2023-05-25T05:09:18.257Z,99098.03
2023-05-25T05:10:20.275Z,99100.47
2023-05-25T05:11:23.606Z,99100.47
2023-05-25T05:12:25.591Z,99099.09
2023-05-25T05:13:27.503Z,99103.16
2023-05-25T05:14:29.719Z,99099.09
2023-05-25T05:15:32.090Z,99099.66
2023-05-25T05:16:35.237Z,99099.38
2023-05-25T05:17:37.445Z,99100.97
2023-05-25T05:18:39.372Z,99099.91
2023-05-25T05:19:41.236Z,99097.22
2023-05-25T05:20:43.219Z,99100.75
2023-05-25T05:21:45.716Z,99099.09
2023-05-25T05:22:47.604Z,99100.97
2023-05-25T05:23:49.495Z,99097.22
2023-05-25T05:24:51.390Z,99100.97
2023-05-25T05:25:53.246Z,99104.50
2023-05-25T05:26:58.414Z,99102.88
2023-05-25T05:28:01.225Z,99108.00
2023-05-25T05:29:04.566Z,99105.56
2023-05-25T05:30:07.744Z,99110.16
2023-05-25T05:31:09.667Z,99124.44
2023-05-25T05:32:11.617Z,99120.94
2023-05-25T05:33:14.647Z,99117.16
2023-05-25T05:34:16.777Z,99117.72
2023-05-25T05:35:18.672Z,99121.75
2023-05-25T05:36:20.587Z,99124.72
2023-05-25T05:37:22.544Z,99122.03
2023-05-25T05:38:24.440Z,99124.44
2023-05-25T05:39:28.073Z,99126.34
2023-05-25T05:40:30.171Z,99126.06
2023-05-25T05:41:32.098Z,99126.06
2023-05-25T05:42:33.952Z,99133.91
2023-05-25T05:43:35.901Z,99134.44
2023-05-25T05:44:37.839Z,99131.72
2023-05-25T05:45:40.468Z,99133.63
2023-05-25T05:46:42.745Z,99141.72
2023-05-25T05:47:44.754Z,99137.13
2023-05-25T05:48:46.646Z,99143.31
2023-05-25T05:49:48.503Z,99130.94
2023-05-25T05:50:52.451Z,99146.03
2023-05-25T05:51:54.426Z,99143.59
2023-05-25T05:52:56.353Z,99142.53
2023-05-25T05:53:58.234Z,99140.09
2023-05-25T05:55:00.203Z,99147.91
2023-05-25T05:56:03.965Z,99148.72
2023-05-25T05:57:06.477Z,99149.53
2023-05-25T05:58:08.364Z,99150.63
2023-05-25T05:59:11.999Z,99154.91
2023-05-25T06:00:16.091Z,99141.44
2023-05-25T06:01:18.118Z,99148.72
2023-05-25T06:02:20.066Z,99146.84
2023-05-25T06:03:27.595Z,99147.63
2023-05-25T06:04:29.607Z,99146.59
2023-05-25T06:05:31.601Z,99146.84
2023-05-25T06:06:35.074Z,99148.72
2023-05-25T06:07:38.456Z,99152.22
2023-05-25T06:08:43.249Z,99142.25
2023-05-25T06:09:45.151Z,99149.53
2023-05-25T06:10:47.133Z,99153.84
2023-05-25T06:11:49.077Z,99153.31
2023-05-25T06:12:52.512Z,99141.44
2023-05-25T06:13:54.570Z,99146.84
2023-05-25T06:14:56.445Z,99150.34
2023-05-25T06:15:58.354Z,99148.72
2023-05-25T06:17:00.531Z,99148.72
2023-05-25T06:18:03.298Z,99147.91
2023-05-25T06:19:05.442Z,99153.59
2023-05-25T06:20:08.038Z,99147.91
2023-05-25T06:21:10.755Z,99153.31
2023-05-25T06:22:13.866Z,99149.53
2023-05-25T06:23:17.765Z,99157.63
2023-05-25T06:24:19.635Z,99164.09
2023-05-25T06:25:21.557Z,99154.13
2023-05-25T06:26:24.211Z,99161.41
2023-05-25T06:27:26.174Z,99163.81
2023-05-25T06:28:28.122Z,99163.00
2023-05-25T06:29:30.387Z,99164.91
2023-05-25T06:30:32.410Z,99164.63
2023-05-25T06:31:34.308Z,99159.50
2023-05-25T06:32:36.430Z,99161.13
2023-05-25T06:33:38.337Z,99165.97
2023-05-25T06:34:40.192Z,99167.59
2023-05-25T06:35:42.483Z,99163.00
2023-05-25T06:36:44.661Z,99174.59
2023-05-25T06:37:48.652Z,99172.19
2023-05-25T06:38:50.554Z,99173.81
2023-05-25T06:39:52.478Z,99168.16
2023-05-25T06:40:54.345Z,99174.59
2023-05-25T06:41:56.301Z,99174.88
2023-05-25T06:42:58.187Z,99174.06
2023-05-25T06:44:00.129Z,99170.28
2023-05-25T06:45:02.044Z,99180.81
2023-05-25T06:46:04.136Z,99180.00
2023-05-25T06:47:06.873Z,99179.19
2023-05-25T06:48:08.890Z,99181.09
2023-05-25T06:49:10.806Z,99176.50
2023-05-25T06:50:13.661Z,99178.94
2023-05-25T06:51:15.773Z,99175.41
2023-05-25T06:52:17.621Z,99172.72
2023-05-25T06:53:19.610Z,99178.38
2023-05-25T06:54:21.604Z,99173.00
2023-05-25T06:55:23.552Z,99175.41
2023-05-25T06:56:25.504Z,99171.66
2023-05-25T06:57:27.537Z,99172.97
2023-05-25T06:58:29.405Z,99172.19
2023-05-25T06:59:31.804Z,99174.59
2023-05-25T07:00:33.687Z,99170.28
2023-05-25T07:01:36.862Z,99175.16
2023-05-25T07:02:39.593Z,99169.78
2023-05-25T07:03:41.721Z,99177.31
2023-05-25T07:04:43.717Z,99171.66
2023-05-25T07:05:45.895Z,99164.63
2023-05-25T07:06:48.295Z,99163.81
2023-05-25T07:07:50.156Z,99161.41
2023-05-25T07:08:52.068Z,99166.78
2023-05-25T07:09:53.906Z,99173.28
2023-05-25T07:10:55.985Z,99170.00
2023-05-25T07:11:58.116Z,99169.19
2023-05-25T07:13:00.074Z,99168.41
2023-05-25T07:14:01.938Z,99169.19
2023-05-25T07:15:04.422Z,99165.97
2023-05-25T07:16:06.627Z,99168.66
2023-05-25T07:17:08.569Z,99163.28
2023-05-25T07:18:12.472Z,99162.47
2023-05-25T07:19:14.688Z,99152.75
2023-05-25T07:20:16.728Z,99146.56
2023-05-25T07:21:18.689Z,99155.19
2023-05-25T07:22:23.801Z,99157.59
2023-05-25T07:23:26.134Z,99160.56
2023-05-25T07:24:27.988Z,99161.66
2023-05-25T07:25:30.059Z,99163.00
2023-05-25T07:26:33.583Z,99156.00
2023-05-25T07:27:36.119Z,99164.09
2023-05-25T07:28:38.048Z,99169.19
2023-05-25T07:29:40.509Z,99170.84
2023-05-25T07:30:42.545Z,99171.91
2023-05-25T07:31:44.764Z,99171.91
2023-05-25T07:32:46.741Z,99176.47
2023-05-25T07:33:48.724Z,99170.84
2023-05-25T07:34:50.586Z,99169.50
2023-05-25T07:35:52.550Z,99166.78
2023-05-25T07:36:54.458Z,99163.00
2023-05-25T07:38:05.734Z,99165.47
2023-05-25T07:39:08.613Z,99167.09
2023-05-25T07:40:11.232Z,99163.56
2023-05-25T07:41:13.578Z,99157.09
2023-05-25T07:42:20.800Z,99158.72
2023-05-25T07:43:22.704Z,99164.41
2023-05-25T07:44:24.662Z,99162.50
2023-05-25T07:45:26.721Z,99163.03
2023-05-25T07:46:28.761Z,99160.06
2023-05-25T07:47:30.892Z,99171.66
2023-05-25T07:48:32.865Z,99167.06
2023-05-25T07:49:34.963Z,99162.22
2023-05-25T07:50:36.863Z,99163.81
2023-05-25T07:51:39.407Z,99153.84
2023-05-25T07:52:41.780Z,99166.00
2023-05-25T07:53:43.676Z,99163.31
2023-05-25T07:54:46.316Z,99164.91
2023-05-25T07:55:48.258Z,99161.41
2023-05-25T07:56:50.175Z,99168.94
2023-05-25T07:57:52.228Z,99165.16
2023-05-25T07:58:54.082Z,99165.16
2023-05-25T07:59:55.971Z,99166.78
2023-05-25T08:00:57.873Z,99170.81
2023-05-25T08:01:59.747Z,99169.72
2023-05-25T08:03:02.742Z,99165.16
2023-05-25T08:04:04.868Z,99166.78
2023-05-25T08:05:07.326Z,99169.22
2023-05-25T08:06:09.309Z,99160.84
2023-05-25T08:07:11.495Z,99161.66
2023-05-25T08:08:14.312Z,99164.34
2023-05-25T08:09:16.581Z,99162.97
2023-05-25T08:10:18.607Z,99172.41
2023-05-25T08:11:26.731Z,99168.38
2023-05-25T08:12:38.523Z,99166.75
2023-05-25T08:13:49.378Z,99171.88
2023-05-25T08:14:51.195Z,99168.38
2023-05-25T08:15:53.154Z,99164.59
2023-05-25T08:16:55.170Z,99161.91
2023-05-25T08:17:57.077Z,99161.34
2023-05-25T08:19:01.541Z,99168.63
2023-05-25T08:20:06.535Z,99168.06
2023-05-25T08:21:08.492Z,99171.59
2023-05-25T08:22:11.027Z,99166.72
2023-05-25T08:23:13.028Z,99174.81
2023-05-25T08:24:14.907Z,99166.72
2023-05-25T08:25:16.731Z,99167.78
2023-05-25T08:26:37.737Z,99166.19
2023-05-25T08:27:41.090Z,99163.72
2023-05-25T08:28:43.144Z,99164.53
2023-05-25T08:29:45.119Z,99169.94
2023-05-25T08:30:47.028Z,99169.66
2023-05-25T08:31:49.851Z,99166.69
2023-05-25T08:32:52.026Z,99163.19
2023-05-25T08:33:53.962Z,99164.78
2023-05-25T08:34:56.104Z,99168.28
2023-05-25T08:35:59.186Z,99169.69
2023-05-25T08:37:01.422Z,99164.28
2023-05-25T08:38:03.413Z,99167.78
2023-05-25T08:39:05.756Z,99169.94
2023-05-25T08:40:16.376Z,99169.38
2023-05-25T08:41:19.905Z,99168.03
2023-05-25T08:42:21.824Z,99174.53
2023-05-25T08:43:23.759Z,99173.97
2023-05-25T08:44:27.644Z,99177.19
2023-05-25T08:45:35.516Z,99169.09
2023-05-25T08:46:38.703Z,99171.00
2023-05-25T08:47:44.896Z,99174.50
2023-05-25T08:48:52.059Z,99177.19
2023-05-25T08:49:55.671Z,99176.38
2023-05-25T08:51:02.196Z,99179.63
2023-05-25T08:52:05.937Z,99181.78
2023-05-25T08:53:12.019Z,99181.22
2023-05-25T08:54:15.846Z,99185.53
2023-05-25T08:55:20.846Z,99180.13
2023-05-25T08:56:30.709Z,99180.41
2023-05-25T08:57:55.260Z,99186.88
2023-05-25T08:59:07.310Z,99183.94
2023-05-25T09:00:14.093Z,99185.53
2023-05-25T09:01:21.067Z,99182.84
2023-05-25T09:02:42.367Z,99183.09
2023-05-25T09:03:46.311Z,99187.97
2023-05-25T09:04:48.553Z,99180.94
2023-05-25T09:05:51.201Z,99181.75
2023-05-25T09:07:08.894Z,99179.06
2023-05-25T09:08:13.515Z,99176.88
2023-05-25T09:09:15.685Z,99179.56
2023-05-25T09:10:17.741Z,99168.50
2023-05-25T09:11:36.154Z,99176.59
2023-05-25T09:12:43.419Z,99163.34
2023-05-25T09:13:46.008Z,99169.81
2023-05-25T09:14:48.298Z,99172.28
2023-05-25T09:15:52.266Z,99168.72
2023-05-25T09:16:54.340Z,99169.28
2023-05-25T09:17:56.227Z,99169.81
2023-05-25T09:18:59.276Z,99166.59
2023-05-25T09:20:01.370Z,99172.50
2023-05-25T09:21:03.532Z,99161.72
2023-05-25T09:22:14.754Z,99166.84
2023-05-25T09:23:18.963Z,99160.06
2023-05-25T09:24:22.195Z,99161.66
2023-05-25T09:25:26.400Z,99164.09
2023-05-25T09:26:28.652Z,99166.53
2023-05-25T09:27:39.393Z,99158.97
2023-05-25T09:28:48.524Z,99171.09
2023-05-25T09:29:51.996Z,99167.59
2023-05-25T09:30:55.192Z,99166.78
2023-05-25T09:31:57.186Z,99170.81
2023-05-25T09:33:14.339Z,99172.94
2023-05-25T09:34:16.230Z,99167.53
2023-05-25T09:35:18.187Z,99163.22
2023-05-25T09:36:22.051Z,99170.25
2023-05-25T09:37:24.130Z,99164.59
2023-05-25T09:38:26.270Z,99167.28
2023-05-25T09:39:30.042Z,99171.31
2023-05-25T09:40:35.166Z,99164.84
2023-05-25T09:41:46.463Z,99173.50
2023-05-25T09:42:48.292Z,99178.63
2023-05-25T09:44:06.064Z,99175.09
2023-05-25T09:45:12.804Z,99172.94
2023-05-25T09:46:14.838Z,99176.44
2023-05-25T09:47:18.118Z,99177.25
2023-05-25T09:48:21.842Z,99168.06
2023-05-25T09:49:23.717Z,99164.28
2023-05-25T09:50:29.974Z,99161.28
2023-05-25T09:51:33.347Z,99166.69
2023-05-25T09:52:36.710Z,99167.22
2023-05-25T09:53:38.687Z,99172.34
2023-05-25T09:54:44.390Z,99175.84
2023-05-25T09:55:53.168Z,99170.16
2023-05-25T09:56:56.416Z,99175.56
2023-05-25T09:57:58.333Z,99178.28
2023-05-25T09:59:01.242Z,99171.78
2023-05-25T10:00:05.598Z,99179.34
2023-05-25T10:01:07.531Z,99175.84
2023-05-25T10:02:09.661Z,99172.03
2023-05-25T10:03:14.981Z,99177.97
2023-05-25T10:04:17.058Z,99177.44
2023-05-25T10:05:19.268Z,99176.88
2023-05-25T10:06:21.621Z,99186.31
2023-05-25T10:07:25.921Z,99187.94
2023-05-25T10:08:29.328Z,99187.94
2023-05-25T10:09:32.148Z,99181.44
2023-05-25T10:10:34.779Z,99183.88
2023-05-25T10:11:42.339Z,99181.97
2023-05-25T10:12:45.350Z,99178.19
2023-05-25T10:13:49.468Z,99176.28
2023-05-25T10:14:54.192Z,99192.22
2023-05-25T10:15:58.012Z,99184.91
2023-05-25T10:17:05.435Z,99183.53
2023-05-25T10:18:09.807Z,99181.13
2023-05-25T10:19:24.435Z,99179.22
2023-05-25T10:20:30.042Z,99179.47
2023-05-25T10:21:37.664Z,99177.56
2023-05-25T10:22:57.010Z,99178.63
2023-05-25T10:24:09.749Z,99174.84
2023-05-25T10:25:35.807Z,99167.81
2023-05-25T10:26:46.921Z,99175.38
2023-05-25T10:28:02.064Z,99172.66
2023-05-25T10:29:04.940Z,99162.94
2023-05-25T10:30:08.607Z,99179.16
2023-05-25T10:31:11.813Z,99176.16
2023-05-25T10:32:16.147Z,99157.25
2023-05-25T10:33:21.135Z,99173.97
2023-05-25T10:34:23.086Z,99173.19
2023-05-25T10:35:25.636Z,99170.47
2023-05-25T10:36:28.535Z,99163.72
2023-05-25T10:37:33.590Z,99162.63
2023-05-25T10:38:36.410Z,99156.41
2023-05-25T10:39:42.571Z,99153.13
2023-05-25T10:40:51.284Z,99153.94
2023-05-25T10:41:53.618Z,99160.16
2023-05-25T10:42:56.111Z,99152.56
2023-05-25T10:43:58.351Z,99167.19
2023-05-25T10:45:01.046Z,99170.69
2023-05-25T10:46:06.219Z,99164.69
2023-05-25T10:47:09.289Z,99158.50
2023-05-25T10:48:11.454Z,99168.78
2023-05-25T10:49:13.327Z,99157.69
2023-05-25T10:50:28.736Z,99166.31
2023-05-25T10:51:41.521Z,99164.13
2023-05-25T10:52:43.512Z,99171.72
2023-05-25T10:53:47.352Z,99169.31
2023-05-25T10:54:49.526Z,99170.63
2023-05-25T10:55:54.385Z,99172.75
2023-05-25T10:57:16.257Z,99160.59
2023-05-25T10:58:20.835Z,99172.47
2023-05-25T10:59:28.687Z,99166.50
2023-05-25T11:00:32.109Z,99160.84
2023-05-25T11:01:51.699Z,99165.94
2023-05-25T11:02:55.692Z,99156.00
2023-05-25T11:04:18.385Z,99148.63
2023-05-25T11:05:40.002Z,99158.84
2023-05-25T11:06:43.974Z,99165.13
2023-05-25T11:08:06.481Z,99169.69
2023-05-25T11:09:28.337Z,99163.22
2023-05-25T11:10:48.570Z,99163.22
2023-05-25T11:11:51.783Z,99171.34
2023-05-25T11:12:53.707Z,99170.53
2023-05-25T11:13:55.594Z,99177.56
2023-05-25T11:15:15.946Z,99173.44
2023-05-25T11:16:37.752Z,99169.13
2023-05-25T11:18:01.219Z,99175.06
2023-05-25T11:19:03.480Z,99171.31
2023-05-25T11:20:06.361Z,99158.59
2023-05-25T11:21:21.347Z,99166.94
2023-05-25T11:22:37.412Z,99170.97
2023-05-25T11:24:00.381Z,99166.88
2023-05-25T11:25:23.545Z,99162.09
2023-05-25T11:26:33.082Z,99163.38
2023-05-25T11:27:46.628Z,99160.38
2023-05-25T11:28:50.674Z,99160.16
2023-05-25T11:29:54.274Z,99162.06
2023-05-25T11:30:58.074Z,99154.75
2023-05-25T11:32:01.088Z,99160.94
2023-05-25T11:33:04.346Z,99159.06
2023-05-25T11:34:06.842Z,99159.56
2023-05-25T11:35:09.401Z,99164.44
2023-05-25T11:36:12.851Z,99164.72
2023-05-25T11:37:24.853Z,99164.44
2023-05-25T11:38:27.390Z,99150.91
2023-05-25T11:39:31.677Z,99161.72
2023-05-25T11:40:34.172Z,99161.72
2023-05-25T11:41:37.703Z,99158.22
2023-05-25T11:42:42.014Z,99160.38
2023-05-25T11:43:46.371Z,99152.53
2023-05-25T11:44:48.713Z,99157.16
2023-05-25T11:46:00.451Z,99160.13
2023-05-25T11:47:14.480Z,99157.66
2023-05-25T11:48:16.747Z,99156.63
2023-05-25T11:49:21.862Z,99155.84
2023-05-25T11:50:23.834Z,99166.13
2023-05-25T11:51:28.701Z,99158.81
2023-05-25T11:52:30.995Z,99155.31
2023-05-25T11:53:33.875Z,99154.50
2023-05-25T11:54:40.980Z,99162.91
2023-05-25T11:55:52.127Z,99157.22
2023-05-25T11:56:59.890Z,99155.09
2023-05-25T11:58:01.980Z,99150.75
2023-05-25T11:59:09.123Z,99146.13
2023-05-25T12:00:12.095Z,99155.94
2023-05-25T12:01:23.050Z,99163.47
2023-05-25T12:02:25.361Z,99166.47
2023-05-25T12:03:33.469Z,99161.84
2023-05-25T12:04:35.665Z,99155.94
2023-05-25T12:05:39.692Z,99156.22
2023-05-25T12:06:41.767Z,99153.00
2023-05-25T12:07:46.661Z,99148.69
2023-05-25T12:08:48.583Z,99147.28
2023-05-25T12:09:50.705Z,99150.28
2023-05-25T12:10:52.712Z,99161.09
2023-05-25T12:11:54.871Z,99158.41
2023-05-25T12:12:58.438Z,99156.50
2023-05-25T12:14:03.536Z,99155.69
2023-05-25T12:15:06.221Z,99144.34
2023-05-25T12:16:08.413Z,99150.28
2023-05-25T12:17:10.830Z,99138.94
2023-05-25T12:18:12.998Z,99147.06
2023-05-25T12:19:15.817Z,99148.69
2023-05-25T12:20:19.026Z,99147.88
2023-05-25T12:21:22.965Z,99144.06
2023-05-25T12:22:24.986Z,99143.25
2023-05-25T12:23:27.086Z,99144.34
2023-05-25T12:24:29.104Z,99138.94
2023-05-25T12:25:42.390Z,99128.94
2023-05-25T12:26:58.618Z,99129.44
2023-05-25T12:28:14.860Z,99136.19
2023-05-25T12:29:17.384Z,99142.97
2023-05-25T12:30:27.545Z,99141.06
2023-05-25T12:31:41.242Z,99135.38
2023-05-25T12:33:14.690Z,99136.16
2023-05-25T12:34:17.686Z,99138.88